sensor_id;sensor_type;location;lat;lon;timestamp;P1;durP1;ratioP1;P2;durP2;ratioP2
1206;SDS011;593;53.184;8.216;2023-10-13T00:00:32;22.47;;;16.10;;
1206;SDS011;593;53.184;8.216;2023-10-13T00:03:01;21.43;;;14.43;;
1206;SDS011;593;53.184;8.216;2023-10-13T00:05:28;24.47;;;15.03;;
1206;SDS011;593;53.184;8.216;2023-10-13T00:07:56;21.63;;;13.77;;
1206;SDS011;593;53.184;8.216;2023-10-13T00:10:22;19.00;;;13.77;;
1206;SDS011;593;53.184;8.216;2023-10-13T00:12:47;21.20;;;14.50;;
1206;SDS011;593;53.184;8.216;2023-10-13T00:15:15;20.60;;;14.90;;
1206;SDS011;593;53.184;8.216;2023-10-13T00:17:52;25.60;;;15.43;;
1206;SDS011;593;53.184;8.216;2023-10-13T00:20:20;22.97;;;16.03;;
1206;SDS011;593;53.184;8.216;2023-10-13T00:23:03;21.93;;;14.70;;
1206;SDS011;593;53.184;8.216;2023-10-13T00:25:28;21.90;;;16.70;;
1206;SDS011;593;53.184;8.216;2023-10-13T00:27:56;23.23;;;15.57;;
1206;SDS011;593;53.184;8.216;2023-10-13T00:30:22;23.30;;;17.47;;
1206;SDS011;593;53.184;8.216;2023-10-13T00:32:58;21.80;;;16.40;;
1206;SDS011;593;53.184;8.216;2023-10-13T00:35:25;27.43;;;18.20;;
1206;SDS011;593;53.184;8.216;2023-10-13T00:37:55;21.43;;;15.90;;
1206;SDS011;593;53.184;8.216;2023-10-13T00:40:22;27.67;;;17.43;;
1206;SDS011;593;53.184;8.216;2023-10-13T00:42:54;25.50;;;16.03;;
1206;SDS011;593;53.184;8.216;2023-10-13T00:45:19;26.07;;;18.00;;
1206;SDS011;593;53.184;8.216;2023-10-13T00:47:45;25.20;;;17.03;;
1206;SDS011;593;53.184;8.216;2023-10-13T00:50:21;23.43;;;16.67;;
1206;SDS011;593;53.184;8.216;2023-10-13T00:52:49;20.67;;;16.60;;
1206;SDS011;593;53.184;8.216;2023-10-13T00:55:15;25.20;;;17.90;;
1206;SDS011;593;53.184;8.216;2023-10-13T00:57:43;33.30;;;18.40;;
1206;SDS011;593;53.184;8.216;2023-10-13T01:00:11;23.53;;;17.23;;
1206;SDS011;593;53.184;8.216;2023-10-13T01:02:52;26.87;;;17.27;;
1206;SDS011;593;53.184;8.216;2023-10-13T01:05:24;26.70;;;19.67;;
1206;SDS011;593;53.184;8.216;2023-10-13T01:07:50;27.60;;;18.83;;
1206;SDS011;593;53.184;8.216;2023-10-13T01:10:19;23.80;;;17.27;;
1206;SDS011;593;53.184;8.216;2023-10-13T01:12:50;27.23;;;18.53;;
1206;SDS011;593;53.184;8.216;2023-10-13T01:15:17;23.83;;;16.93;;
1206;SDS011;593;53.184;8.216;2023-10-13T01:17:46;24.93;;;17.77;;
1206;SDS011;593;53.184;8.216;2023-10-13T01:20:12;30.60;;;20.30;;
1206;SDS011;593;53.184;8.216;2023-10-13T01:22:45;25.57;;;19.30;;
1206;SDS011;593;53.184;8.216;2023-10-13T01:25:20;24.23;;;17.50;;
1206;SDS011;593;53.184;8.216;2023-10-13T01:27:50;27.10;;;19.10;;
1206;SDS011;593;53.184;8.216;2023-10-13T01:30:16;27.93;;;20.37;;
1206;SDS011;593;53.184;8.216;2023-10-13T01:32:41;27.83;;;19.60;;
1206;SDS011;593;53.184;8.216;2023-10-13T01:35:11;28.97;;;18.97;;
1206;SDS011;593;53.184;8.216;2023-10-13T01:37:36;30.07;;;20.00;;
1206;SDS011;593;53.184;8.216;2023-10-13T01:40:01;30.43;;;21.07;;
1206;SDS011;593;53.184;8.216;2023-10-13T01:42:26;30.57;;;19.33;;
1206;SDS011;593;53.184;8.216;2023-10-13T01:44:53;27.87;;;19.23;;
1206;SDS011;593;53.184;8.216;2023-10-13T01:47:30;26.47;;;18.80;;
1206;SDS011;593;53.184;8.216;2023-10-13T01:49:55;25.33;;;19.47;;
1206;SDS011;593;53.184;8.216;2023-10-13T01:52:23;29.50;;;20.33;;
1206;SDS011;593;53.184;8.216;2023-10-13T01:54:50;31.50;;;20.43;;
1206;SDS011;593;53.184;8.216;2023-10-13T01:57:16;29.73;;;20.17;;
1206;SDS011;593;53.184;8.216;2023-10-13T01:59:49;31.93;;;20.90;;
1206;SDS011;593;53.184;8.216;2023-10-13T02:02:15;26.77;;;19.87;;
1206;SDS011;593;53.184;8.216;2023-10-13T02:04:45;27.80;;;19.23;;
1206;SDS011;593;53.184;8.216;2023-10-13T02:07:25;31.23;;;18.73;;
1206;SDS011;593;53.184;8.216;2023-10-13T02:09:59;25.90;;;19.63;;
1206;SDS011;593;53.184;8.216;2023-10-13T02:12:29;31.00;;;18.90;;
1206;SDS011;593;53.184;8.216;2023-10-13T02:15:02;30.80;;;20.30;;
1206;SDS011;593;53.184;8.216;2023-10-13T02:17:29;33.97;;;20.53;;
1206;SDS011;593;53.184;8.216;2023-10-13T02:20:05;25.13;;;18.43;;
1206;SDS011;593;53.184;8.216;2023-10-13T02:22:33;28.67;;;20.47;;
1206;SDS011;593;53.184;8.216;2023-10-13T02:24:59;29.40;;;19.27;;
1206;SDS011;593;53.184;8.216;2023-10-13T02:27:32;26.53;;;18.20;;
1206;SDS011;593;53.184;8.216;2023-10-13T02:30:05;29.80;;;21.20;;
1206;SDS011;593;53.184;8.216;2023-10-13T02:32:37;25.33;;;19.80;;
1206;SDS011;593;53.184;8.216;2023-10-13T02:35:05;32.43;;;21.23;;
1206;SDS011;593;53.184;8.216;2023-10-13T02:37:34;27.83;;;19.97;;
1206;SDS011;593;53.184;8.216;2023-10-13T02:40:00;32.60;;;21.50;;
1206;SDS011;593;53.184;8.216;2023-10-13T02:42:26;29.40;;;21.67;;
1206;SDS011;593;53.184;8.216;2023-10-13T02:44:51;29.40;;;20.37;;
1206;SDS011;593;53.184;8.216;2023-10-13T02:47:20;27.20;;;20.00;;
1206;SDS011;593;53.184;8.216;2023-10-13T02:49:48;30.57;;;20.90;;
1206;SDS011;593;53.184;8.216;2023-10-13T02:52:14;26.67;;;19.43;;
1206;SDS011;593;53.184;8.216;2023-10-13T02:54:40;26.60;;;19.80;;
1206;SDS011;593;53.184;8.216;2023-10-13T02:57:12;28.00;;;20.10;;
1206;SDS011;593;53.184;8.216;2023-10-13T02:59:43;28.17;;;20.53;;
1206;SDS011;593;53.184;8.216;2023-10-13T03:02:15;34.90;;;20.37;;
1206;SDS011;593;53.184;8.216;2023-10-13T03:04:58;29.83;;;20.30;;
1206;SDS011;593;53.184;8.216;2023-10-13T03:07:34;30.10;;;20.57;;
1206;SDS011;593;53.184;8.216;2023-10-13T03:10:02;31.60;;;20.97;;
1206;SDS011;593;53.184;8.216;2023-10-13T03:12:37;29.87;;;20.53;;
1206;SDS011;593;53.184;8.216;2023-10-13T03:15:04;30.20;;;21.27;;
1206;SDS011;593;53.184;8.216;2023-10-13T03:17:42;30.23;;;21.60;;
1206;SDS011;593;53.184;8.216;2023-10-13T03:20:11;35.03;;;21.73;;
1206;SDS011;593;53.184;8.216;2023-10-13T03:22:47;28.47;;;20.80;;
1206;SDS011;593;53.184;8.216;2023-10-13T03:25:12;31.13;;;21.20;;
1206;SDS011;593;53.184;8.216;2023-10-13T03:27:48;29.10;;;21.40;;
1206;SDS011;593;53.184;8.216;2023-10-13T03:30:13;30.90;;;21.00;;
1206;SDS011;593;53.184;8.216;2023-10-13T03:32:40;34.93;;;21.13;;
1206;SDS011;593;53.184;8.216;2023-10-13T03:35:19;29.27;;;21.07;;
1206;SDS011;593;53.184;8.216;2023-10-13T03:38:02;30.87;;;20.00;;
1206;SDS011;593;53.184;8.216;2023-10-13T03:40:28;32.23;;;22.00;;
1206;SDS011;593;53.184;8.216;2023-10-13T03:42:54;32.00;;;21.37;;
1206;SDS011;593;53.184;8.216;2023-10-13T03:48:14;34.10;;;19.77;;
1206;SDS011;593;53.184;8.216;2023-10-13T03:50:50;27.73;;;19.33;;
1206;SDS011;593;53.184;8.216;2023-10-13T03:53:28;30.40;;;19.70;;
1206;SDS011;593;53.184;8.216;2023-10-13T03:56:03;28.23;;;18.70;;
1206;SDS011;593;53.184;8.216;2023-10-13T03:58:51;25.10;;;16.50;;
1206;SDS011;593;53.184;8.216;2023-10-13T04:01:18;26.00;;;18.87;;
1206;SDS011;593;53.184;8.216;2023-10-13T04:03:49;28.63;;;19.00;;
1206;SDS011;593;53.184;8.216;2023-10-13T04:06:44;25.50;;;17.43;;
1206;SDS011;593;53.184;8.216;2023-10-13T04:09:17;25.10;;;17.30;;
1206;SDS011;593;53.184;8.216;2023-10-13T04:14:30;22.83;;;16.37;;
1206;SDS011;593;53.184;8.216;2023-10-13T04:17:16;23.67;;;15.83;;
1206;SDS011;593;53.184;8.216;2023-10-13T04:20:02;24.10;;;17.03;;
1206;SDS011;593;53.184;8.216;2023-10-13T04:22:30;23.40;;;16.00;;
1206;SDS011;593;53.184;8.216;2023-10-13T04:25:11;25.13;;;16.27;;
1206;SDS011;593;53.184;8.216;2023-10-13T04:28:15;22.03;;;15.73;;
1206;SDS011;593;53.184;8.216;2023-10-13T04:30:59;24.67;;;17.40;;
1206;SDS011;593;53.184;8.216;2023-10-13T04:33:32;23.63;;;18.37;;
1206;SDS011;593;53.184;8.216;2023-10-13T04:36:07;23.70;;;16.60;;
1206;SDS011;593;53.184;8.216;2023-10-13T04:38:56;24.40;;;16.27;;
1206;SDS011;593;53.184;8.216;2023-10-13T04:41:25;22.47;;;15.40;;
1206;SDS011;593;53.184;8.216;2023-10-13T04:44:06;23.40;;;16.53;;
1206;SDS011;593;53.184;8.216;2023-10-13T04:46:55;24.00;;;16.90;;
1206;SDS011;593;53.184;8.216;2023-10-13T04:49:24;22.53;;;17.40;;
1206;SDS011;593;53.184;8.216;2023-10-13T04:51:55;25.67;;;17.43;;
1206;SDS011;593;53.184;8.216;2023-10-13T04:54:26;23.00;;;16.63;;
1206;SDS011;593;53.184;8.216;2023-10-13T04:56:58;22.87;;;16.53;;
1206;SDS011;593;53.184;8.216;2023-10-13T04:59:42;24.60;;;17.50;;
1206;SDS011;593;53.184;8.216;2023-10-13T05:02:43;22.07;;;17.10;;
1206;SDS011;593;53.184;8.216;2023-10-13T05:05:25;24.50;;;17.50;;
1206;SDS011;593;53.184;8.216;2023-10-13T05:07:51;23.83;;;16.83;;
1206;SDS011;593;53.184;8.216;2023-10-13T05:10:35;25.27;;;18.17;;
1206;SDS011;593;53.184;8.216;2023-10-13T05:13:20;24.00;;;16.53;;
1206;SDS011;593;53.184;8.216;2023-10-13T05:16:04;22.10;;;16.63;;
1206;SDS011;593;53.184;8.216;2023-10-13T05:18:48;23.17;;;17.43;;
1206;SDS011;593;53.184;8.216;2023-10-13T05:21:32;22.93;;;17.30;;
1206;SDS011;593;53.184;8.216;2023-10-13T05:24:16;23.33;;;16.60;;
1206;SDS011;593;53.184;8.216;2023-10-13T05:27:00;21.90;;;16.30;;
1206;SDS011;593;53.184;8.216;2023-10-13T05:29:45;24.83;;;15.43;;
1206;SDS011;593;53.184;8.216;2023-10-13T05:32:30;23.10;;;16.10;;
1206;SDS011;593;53.184;8.216;2023-10-13T05:35:14;22.70;;;16.93;;
1206;SDS011;593;53.184;8.216;2023-10-13T05:37:59;20.83;;;16.17;;
1206;SDS011;593;53.184;8.216;2023-10-13T05:40:53;20.83;;;13.87;;
1206;SDS011;593;53.184;8.216;2023-10-13T05:43:48;20.30;;;14.50;;
1206;SDS011;593;53.184;8.216;2023-10-13T05:46:33;19.70;;;14.63;;
1206;SDS011;593;53.184;8.216;2023-10-13T05:49:05;20.77;;;16.50;;
1206;SDS011;593;53.184;8.216;2023-10-13T05:51:54;17.53;;;14.03;;
1206;SDS011;593;53.184;8.216;2023-10-13T05:54:43;18.40;;;15.10;;
1206;SDS011;593;53.184;8.216;2023-10-13T05:57:27;20.97;;;15.17;;
1206;SDS011;593;53.184;8.216;2023-10-13T06:00:11;19.40;;;14.47;;
1206;SDS011;593;53.184;8.216;2023-10-13T06:02:55;18.70;;;13.80;;
1206;SDS011;593;53.184;8.216;2023-10-13T06:05:39;22.63;;;14.97;;
1206;SDS011;593;53.184;8.216;2023-10-13T06:08:23;20.30;;;14.13;;
1206;SDS011;593;53.184;8.216;2023-10-13T06:11:07;19.83;;;14.80;;
1206;SDS011;593;53.184;8.216;2023-10-13T06:13:50;18.03;;;13.93;;
1206;SDS011;593;53.184;8.216;2023-10-13T06:16:34;19.10;;;14.23;;
1206;SDS011;593;53.184;8.216;2023-10-13T06:19:18;16.50;;;14.03;;
1206;SDS011;593;53.184;8.216;2023-10-13T06:22:03;21.33;;;14.40;;
1206;SDS011;593;53.184;8.216;2023-10-13T06:24:47;19.53;;;13.40;;
1206;SDS011;593;53.184;8.216;2023-10-13T06:27:31;19.90;;;14.50;;
1206;SDS011;593;53.184;8.216;2023-10-13T06:30:14;18.40;;;13.67;;
1206;SDS011;593;53.184;8.216;2023-10-13T06:32:42;18.80;;;13.70;;
1206;SDS011;593;53.184;8.216;2023-10-13T06:35:07;20.03;;;14.47;;
1206;SDS011;593;53.184;8.216;2023-10-13T06:37:33;16.80;;;13.17;;
1206;SDS011;593;53.184;8.216;2023-10-13T06:40:03;15.20;;;11.33;;
1206;SDS011;593;53.184;8.216;2023-10-13T06:42:52;15.00;;;12.03;;
1206;SDS011;593;53.184;8.216;2023-10-13T06:45:36;14.30;;;11.67;;
1206;SDS011;593;53.184;8.216;2023-10-13T06:48:01;16.17;;;12.13;;
1206;SDS011;593;53.184;8.216;2023-10-13T06:50:27;12.40;;;11.07;;
1206;SDS011;593;53.184;8.216;2023-10-13T06:52:54;13.93;;;10.90;;
1206;SDS011;593;53.184;8.216;2023-10-13T06:55:20;13.83;;;10.20;;
1206;SDS011;593;53.184;8.216;2023-10-13T06:58:00;10.53;;;9.43;;
1206;SDS011;593;53.184;8.216;2023-10-13T07:00:26;13.30;;;11.70;;
1206;SDS011;593;53.184;8.216;2023-10-13T07:02:59;11.77;;;10.53;;
1206;SDS011;593;53.184;8.216;2023-10-13T07:05:43;10.43;;;9.27;;
1206;SDS011;593;53.184;8.216;2023-10-13T07:08:09;11.20;;;9.37;;
1206;SDS011;593;53.184;8.216;2023-10-13T07:10:46;12.33;;;9.87;;
1206;SDS011;593;53.184;8.216;2023-10-13T07:13:28;10.70;;;8.80;;
1206;SDS011;593;53.184;8.216;2023-10-13T07:15:54;9.00;;;8.13;;
1206;SDS011;593;53.184;8.216;2023-10-13T07:18:25;8.87;;;7.97;;
1206;SDS011;593;53.184;8.216;2023-10-13T07:20:50;12.00;;;9.10;;
1206;SDS011;593;53.184;8.216;2023-10-13T07:23:15;9.30;;;8.30;;
1206;SDS011;593;53.184;8.216;2023-10-13T07:25:51;11.57;;;9.13;;
1206;SDS011;593;53.184;8.216;2023-10-13T07:28:27;9.73;;;8.73;;
1206;SDS011;593;53.184;8.216;2023-10-13T07:30:56;10.50;;;9.17;;
1206;SDS011;593;53.184;8.216;2023-10-13T07:33:24;9.60;;;8.10;;
1206;SDS011;593;53.184;8.216;2023-10-13T07:36:04;10.40;;;9.00;;
1206;SDS011;593;53.184;8.216;2023-10-13T07:38:53;11.47;;;8.30;;
1206;SDS011;593;53.184;8.216;2023-10-13T07:41:37;11.63;;;9.17;;
1206;SDS011;593;53.184;8.216;2023-10-13T07:44:02;10.37;;;9.20;;
1206;SDS011;593;53.184;8.216;2023-10-13T07:46:30;10.87;;;9.63;;
1206;SDS011;593;53.184;8.216;2023-10-13T07:48:58;10.90;;;8.07;;
1206;SDS011;593;53.184;8.216;2023-10-13T07:51:39;10.00;;;9.00;;
1206;SDS011;593;53.184;8.216;2023-10-13T07:54:12;10.40;;;9.40;;
1206;SDS011;593;53.184;8.216;2023-10-13T07:56:43;10.80;;;9.20;;
1206;SDS011;593;53.184;8.216;2023-10-13T07:59:08;11.23;;;9.63;;
1206;SDS011;593;53.184;8.216;2023-10-13T08:01:34;10.10;;;8.53;;
1206;SDS011;593;53.184;8.216;2023-10-13T08:04:00;10.20;;;9.20;;
1206;SDS011;593;53.184;8.216;2023-10-13T08:06:39;9.53;;;8.10;;
1206;SDS011;593;53.184;8.216;2023-10-13T08:09:11;8.70;;;7.80;;
1206;SDS011;593;53.184;8.216;2023-10-13T08:11:55;9.03;;;8.07;;
1206;SDS011;593;53.184;8.216;2023-10-13T08:14:21;8.17;;;7.30;;
1206;SDS011;593;53.184;8.216;2023-10-13T08:16:54;8.73;;;7.93;;
1206;SDS011;593;53.184;8.216;2023-10-13T08:19:23;8.60;;;6.80;;
1206;SDS011;593;53.184;8.216;2023-10-13T08:21:53;8.27;;;5.90;;
1206;SDS011;593;53.184;8.216;2023-10-13T08:24:48;6.70;;;5.97;;
1206;SDS011;593;53.184;8.216;2023-10-13T08:27:18;7.50;;;6.10;;
1206;SDS011;593;53.184;8.216;2023-10-13T08:30:13;6.27;;;5.67;;
1206;SDS011;593;53.184;8.216;2023-10-13T08:33:07;9.60;;;5.20;;
1206;SDS011;593;53.184;8.216;2023-10-13T08:35:41;6.13;;;5.07;;
1206;SDS011;593;53.184;8.216;2023-10-13T08:38:19;6.20;;;5.63;;
1206;SDS011;593;53.184;8.216;2023-10-13T08:40:53;9.60;;;5.90;;
1206;SDS011;593;53.184;8.216;2023-10-13T08:43:38;5.43;;;4.90;;
1206;SDS011;593;53.184;8.216;2023-10-13T08:46:09;6.70;;;5.10;;
1206;SDS011;593;53.184;8.216;2023-10-13T08:48:49;6.90;;;4.93;;
1206;SDS011;593;53.184;8.216;2023-10-13T08:51:15;7.90;;;4.80;;
1206;SDS011;593;53.184;8.216;2023-10-13T08:53:56;6.10;;;4.67;;
1206;SDS011;593;53.184;8.216;2023-10-13T08:56:33;9.23;;;5.80;;
1206;SDS011;593;53.184;8.216;2023-10-13T08:58:59;9.47;;;5.53;;
1206;SDS011;593;53.184;8.216;2023-10-13T09:01:31;6.10;;;5.50;;
1206;SDS011;593;53.184;8.216;2023-10-13T09:04:08;6.63;;;5.20;;
1206;SDS011;593;53.184;8.216;2023-10-13T09:06:44;9.83;;;5.07;;
1206;SDS011;593;53.184;8.216;2023-10-13T09:12:16;8.57;;;5.47;;
1206;SDS011;593;53.184;8.216;2023-10-13T09:14:58;8.60;;;5.20;;
1206;SDS011;593;53.184;8.216;2023-10-13T09:17:30;6.10;;;4.90;;
1206;SDS011;593;53.184;8.216;2023-10-13T09:20:03;7.53;;;5.30;;
1206;SDS011;593;53.184;8.216;2023-10-13T09:22:50;6.57;;;5.50;;
1206;SDS011;593;53.184;8.216;2023-10-13T09:25:29;8.23;;;6.00;;
1206;SDS011;593;53.184;8.216;2023-10-13T09:28:10;8.27;;;5.70;;
1206;SDS011;593;53.184;8.216;2023-10-13T09:30:47;7.80;;;6.27;;
1206;SDS011;593;53.184;8.216;2023-10-13T09:33:13;9.50;;;5.73;;
1206;SDS011;593;53.184;8.216;2023-10-13T09:35:53;10.63;;;6.77;;
1206;SDS011;593;53.184;8.216;2023-10-13T09:38:19;9.47;;;6.60;;
1206;SDS011;593;53.184;8.216;2023-10-13T09:40:45;10.10;;;6.43;;
1206;SDS011;593;53.184;8.216;2023-10-13T09:43:23;8.23;;;5.73;;
1206;SDS011;593;53.184;8.216;2023-10-13T09:45:50;15.53;;;7.37;;
1206;SDS011;593;53.184;8.216;2023-10-13T09:48:36;8.93;;;5.13;;
1206;SDS011;593;53.184;8.216;2023-10-13T09:51:06;6.77;;;6.10;;
1206;SDS011;593;53.184;8.216;2023-10-13T09:53:39;7.47;;;5.90;;
1206;SDS011;593;53.184;8.216;2023-10-13T09:56:11;10.83;;;6.37;;
1206;SDS011;593;53.184;8.216;2023-10-13T10:01:33;7.70;;;6.27;;
1206;SDS011;593;53.184;8.216;2023-10-13T10:04:07;10.07;;;7.53;;
1206;SDS011;593;53.184;8.216;2023-10-13T10:06:36;7.90;;;5.90;;
1206;SDS011;593;53.184;8.216;2023-10-13T10:09:09;7.50;;;6.70;;
1206;SDS011;593;53.184;8.216;2023-10-13T10:14:12;12.10;;;7.87;;
1206;SDS011;593;53.184;8.216;2023-10-13T10:16:50;7.87;;;7.07;;
1206;SDS011;593;53.184;8.216;2023-10-13T10:19:32;10.40;;;7.97;;
1206;SDS011;593;53.184;8.216;2023-10-13T10:22:01;11.80;;;7.63;;
1206;SDS011;593;53.184;8.216;2023-10-13T10:24:41;8.90;;;7.90;;
1206;SDS011;593;53.184;8.216;2023-10-13T10:27:07;9.00;;;8.10;;
1206;SDS011;593;53.184;8.216;2023-10-13T10:29:32;11.40;;;7.43;;
1206;SDS011;593;53.184;8.216;2023-10-13T10:31:59;9.33;;;7.67;;
1206;SDS011;593;53.184;8.216;2023-10-13T10:34:29;9.23;;;8.10;;
1206;SDS011;593;53.184;8.216;2023-10-13T10:36:57;8.90;;;7.90;;
1206;SDS011;593;53.184;8.216;2023-10-13T10:39:33;14.30;;;8.90;;
1206;SDS011;593;53.184;8.216;2023-10-13T10:42:10;10.87;;;8.20;;
1206;SDS011;593;53.184;8.216;2023-10-13T10:44:40;9.63;;;8.30;;
1206;SDS011;593;53.184;8.216;2023-10-13T10:47:09;15.63;;;8.00;;
1206;SDS011;593;53.184;8.216;2023-10-13T10:49:55;9.60;;;8.00;;
1206;SDS011;593;53.184;8.216;2023-10-13T10:52:21;11.60;;;8.50;;
1206;SDS011;593;53.184;8.216;2023-10-13T10:54:58;10.63;;;7.97;;
1206;SDS011;593;53.184;8.216;2023-10-13T10:57:24;12.17;;;8.23;;
1206;SDS011;593;53.184;8.216;2023-10-13T10:59:53;13.57;;;8.93;;
1206;SDS011;593;53.184;8.216;2023-10-13T11:02:36;12.43;;;7.43;;
1206;SDS011;593;53.184;8.216;2023-10-13T11:05:01;9.80;;;8.80;;
1206;SDS011;593;53.184;8.216;2023-10-13T11:07:27;10.13;;;7.80;;
1206;SDS011;593;53.184;8.216;2023-10-13T11:09:53;12.13;;;7.70;;
1206;SDS011;593;53.184;8.216;2023-10-13T11:12:30;10.07;;;8.20;;
1206;SDS011;593;53.184;8.216;2023-10-13T11:15:02;9.33;;;7.27;;
1206;SDS011;593;53.184;8.216;2023-10-13T11:17:50;12.43;;;7.50;;
1206;SDS011;593;53.184;8.216;2023-10-13T11:20:20;12.83;;;7.37;;
1206;SDS011;593;53.184;8.216;2023-10-13T11:22:58;11.80;;;7.70;;
1206;SDS011;593;53.184;8.216;2023-10-13T11:25:25;7.80;;;7.00;;
1206;SDS011;593;53.184;8.216;2023-10-13T11:28:12;11.07;;;6.37;;
1206;SDS011;593;53.184;8.216;2023-10-13T11:30:45;8.23;;;6.80;;
1206;SDS011;593;53.184;8.216;2023-10-13T11:33:15;8.60;;;6.70;;
1206;SDS011;593;53.184;8.216;2023-10-13T11:35:48;8.50;;;6.93;;
1206;SDS011;593;53.184;8.216;2023-10-13T11:38:14;8.37;;;6.80;;
1206;SDS011;593;53.184;8.216;2023-10-13T11:40:49;11.20;;;6.17;;
1206;SDS011;593;53.184;8.216;2023-10-13T11:43:46;6.33;;;5.73;;
1206;SDS011;593;53.184;8.216;2023-10-13T11:46:18;8.13;;;6.23;;
1206;SDS011;593;53.184;8.216;2023-10-13T11:49:02;11.50;;;5.50;;
1206;SDS011;593;53.184;8.216;2023-10-13T11:51:40;12.17;;;6.63;;
1206;SDS011;593;53.184;8.216;2023-10-13T11:56:44;8.27;;;7.37;;
1206;SDS011;593;53.184;8.216;2023-10-13T11:59:10;12.53;;;6.67;;
1206;SDS011;593;53.184;8.216;2023-10-13T12:01:51;9.20;;;6.43;;
1206;SDS011;593;53.184;8.216;2023-10-13T12:04:35;11.03;;;6.23;;
1206;SDS011;593;53.184;8.216;2023-10-13T12:07:10;8.90;;;6.00;;
1206;SDS011;593;53.184;8.216;2023-10-13T12:09:44;10.00;;;5.43;;
1206;SDS011;593;53.184;8.216;2023-10-13T12:12:19;7.53;;;6.73;;
1206;SDS011;593;53.184;8.216;2023-10-13T12:14:45;8.90;;;6.40;;
1206;SDS011;593;53.184;8.216;2023-10-13T12:17:27;8.70;;;5.80;;
1206;SDS011;593;53.184;8.216;2023-10-13T12:20:14;7.60;;;5.87;;
1206;SDS011;593;53.184;8.216;2023-10-13T12:22:43;9.13;;;5.80;;
1206;SDS011;593;53.184;8.216;2023-10-13T12:25:20;8.70;;;5.97;;
1206;SDS011;593;53.184;8.216;2023-10-13T12:27:57;9.23;;;5.37;;
1206;SDS011;593;53.184;8.216;2023-10-13T12:30:24;7.17;;;5.33;;
1206;SDS011;593;53.184;8.216;2023-10-13T12:33:13;9.47;;;5.83;;
1206;SDS011;593;53.184;8.216;2023-10-13T12:35:41;7.93;;;5.30;;
1206;SDS011;593;53.184;8.216;2023-10-13T12:38:23;6.10;;;5.10;;
1206;SDS011;593;53.184;8.216;2023-10-13T12:41:04;9.80;;;6.33;;
1206;SDS011;593;53.184;8.216;2023-10-13T12:43:48;8.93;;;4.80;;
1206;SDS011;593;53.184;8.216;2023-10-13T12:46:32;7.17;;;5.40;;
1206;SDS011;593;53.184;8.216;2023-10-13T12:49:16;7.70;;;6.40;;
1206;SDS011;593;53.184;8.216;2023-10-13T12:52:01;12.27;;;5.80;;
1206;SDS011;593;53.184;8.216;2023-10-13T12:54:26;8.17;;;5.27;;
1206;SDS011;593;53.184;8.216;2023-10-13T12:57:00;10.60;;;4.87;;
1206;SDS011;593;53.184;8.216;2023-10-13T12:59:25;9.40;;;5.77;;
1206;SDS011;593;53.184;8.216;2023-10-13T13:01:53;10.60;;;5.50;;
1206;SDS011;593;53.184;8.216;2023-10-13T13:04:19;9.47;;;5.07;;
1206;SDS011;593;53.184;8.216;2023-10-13T13:06:50;12.83;;;5.90;;
1206;SDS011;593;53.184;8.216;2023-10-13T13:09:16;13.30;;;5.67;;
1206;SDS011;593;53.184;8.216;2023-10-13T13:11:50;6.87;;;6.10;;
1206;SDS011;593;53.184;8.216;2023-10-13T13:14:24;9.00;;;6.00;;
1206;SDS011;593;53.184;8.216;2023-10-13T13:16:59;7.37;;;5.57;;
1206;SDS011;593;53.184;8.216;2023-10-13T13:19:33;10.53;;;6.30;;
1206;SDS011;593;53.184;8.216;2023-10-13T13:22:06;10.50;;;6.60;;
1206;SDS011;593;53.184;8.216;2023-10-13T13:24:38;8.63;;;5.67;;
1206;SDS011;593;53.184;8.216;2023-10-13T13:27:10;9.70;;;5.70;;
1206;SDS011;593;53.184;8.216;2023-10-13T13:29:38;7.70;;;6.37;;
1206;SDS011;593;53.184;8.216;2023-10-13T13:32:07;6.07;;;5.20;;
1206;SDS011;593;53.184;8.216;2023-10-13T13:34:42;10.70;;;6.33;;
1206;SDS011;593;53.184;8.216;2023-10-13T13:37:08;10.23;;;5.80;;
1206;SDS011;593;53.184;8.216;2023-10-13T13:39:37;6.53;;;5.80;;
1206;SDS011;593;53.184;8.216;2023-10-13T13:42:08;8.83;;;5.10;;
1206;SDS011;593;53.184;8.216;2023-10-13T13:44:34;11.23;;;6.03;;
1206;SDS011;593;53.184;8.216;2023-10-13T13:47:02;11.63;;;6.00;;
1206;SDS011;593;53.184;8.216;2023-10-13T13:49:37;6.97;;;5.03;;
1206;SDS011;593;53.184;8.216;2023-10-13T13:52:05;8.97;;;5.70;;
1206;SDS011;593;53.184;8.216;2023-10-13T13:54:32;10.27;;;6.07;;
1206;SDS011;593;53.184;8.216;2023-10-13T13:56:57;9.40;;;6.23;;
1206;SDS011;593;53.184;8.216;2023-10-13T13:59:22;7.77;;;6.00;;
1206;SDS011;593;53.184;8.216;2023-10-13T14:01:48;14.77;;;6.70;;
1206;SDS011;593;53.184;8.216;2023-10-13T14:04:13;18.33;;;7.63;;
1206;SDS011;593;53.184;8.216;2023-10-13T14:06:42;7.60;;;6.77;;
1206;SDS011;593;53.184;8.216;2023-10-13T14:09:09;9.67;;;5.83;;
1206;SDS011;593;53.184;8.216;2023-10-13T14:11:57;7.53;;;6.73;;
1206;SDS011;593;53.184;8.216;2023-10-13T14:14:42;9.27;;;7.03;;
1206;SDS011;593;53.184;8.216;2023-10-13T14:17:14;6.57;;;6.03;;
1206;SDS011;593;53.184;8.216;2023-10-13T14:19:39;6.70;;;5.93;;
1206;SDS011;593;53.184;8.216;2023-10-13T14:22:10;8.50;;;6.10;;
1206;SDS011;593;53.184;8.216;2023-10-13T14:24:37;11.43;;;6.27;;
1206;SDS011;593;53.184;8.216;2023-10-13T14:27:08;7.83;;;6.57;;
1206;SDS011;593;53.184;8.216;2023-10-13T14:29:40;6.83;;;6.00;;
1206;SDS011;593;53.184;8.216;2023-10-13T14:32:10;12.17;;;6.43;;
1206;SDS011;593;53.184;8.216;2023-10-13T14:34:38;7.93;;;5.80;;
1206;SDS011;593;53.184;8.216;2023-10-13T14:37:06;15.03;;;5.90;;
1206;SDS011;593;53.184;8.216;2023-10-13T14:39:32;6.50;;;5.20;;
1206;SDS011;593;53.184;8.216;2023-10-13T14:41:59;10.27;;;5.73;;
1206;SDS011;593;53.184;8.216;2023-10-13T14:44:27;8.43;;;5.73;;
1206;SDS011;593;53.184;8.216;2023-10-13T14:46:52;9.23;;;6.90;;
1206;SDS011;593;53.184;8.216;2023-10-13T14:49:20;8.57;;;5.07;;
1206;SDS011;593;53.184;8.216;2023-10-13T14:51:45;9.23;;;7.23;;
1206;SDS011;593;53.184;8.216;2023-10-13T14:54:11;8.13;;;6.00;;
1206;SDS011;593;53.184;8.216;2023-10-13T14:56:36;8.60;;;5.70;;
1206;SDS011;593;53.184;8.216;2023-10-13T14:59:01;8.37;;;5.77;;
1206;SDS011;593;53.184;8.216;2023-10-13T15:01:29;8.60;;;5.40;;
1206;SDS011;593;53.184;8.216;2023-10-13T15:03:56;9.80;;;6.33;;
1206;SDS011;593;53.184;8.216;2023-10-13T15:06:23;13.20;;;6.20;;
1206;SDS011;593;53.184;8.216;2023-10-13T15:08:56;11.47;;;6.87;;
1206;SDS011;593;53.184;8.216;2023-10-13T15:11:22;9.47;;;6.40;;
1206;SDS011;593;53.184;8.216;2023-10-13T15:13:52;7.27;;;5.70;;
1206;SDS011;593;53.184;8.216;2023-10-13T15:16:21;11.50;;;6.00;;
1206;SDS011;593;53.184;8.216;2023-10-13T15:18:49;10.93;;;6.80;;
1206;SDS011;593;53.184;8.216;2023-10-13T15:21:22;10.07;;;5.40;;
1206;SDS011;593;53.184;8.216;2023-10-13T15:23:55;8.40;;;6.10;;
1206;SDS011;593;53.184;8.216;2023-10-13T15:26:28;7.83;;;5.90;;
1206;SDS011;593;53.184;8.216;2023-10-13T15:28:54;11.93;;;5.90;;
1206;SDS011;593;53.184;8.216;2023-10-13T15:31:21;8.93;;;6.10;;
1206;SDS011;593;53.184;8.216;2023-10-13T15:33:59;12.73;;;6.10;;
1206;SDS011;593;53.184;8.216;2023-10-13T15:36:31;7.53;;;5.97;;
1206;SDS011;593;53.184;8.216;2023-10-13T15:39:00;9.57;;;5.63;;
1206;SDS011;593;53.184;8.216;2023-10-13T15:41:26;10.17;;;5.93;;
1206;SDS011;593;53.184;8.216;2023-10-13T15:43:53;9.73;;;6.37;;
1206;SDS011;593;53.184;8.216;2023-10-13T15:46:19;7.30;;;5.80;;
1206;SDS011;593;53.184;8.216;2023-10-13T15:48:46;9.90;;;5.83;;
1206;SDS011;593;53.184;8.216;2023-10-13T15:51:12;8.83;;;5.80;;
1206;SDS011;593;53.184;8.216;2023-10-13T15:53:38;11.53;;;7.20;;
1206;SDS011;593;53.184;8.216;2023-10-13T15:56:04;10.77;;;6.20;;
1206;SDS011;593;53.184;8.216;2023-10-13T15:58:45;9.70;;;6.10;;
1206;SDS011;593;53.184;8.216;2023-10-13T16:01:12;10.47;;;6.20;;
1206;SDS011;593;53.184;8.216;2023-10-13T16:03:38;6.73;;;6.03;;
1206;SDS011;593;53.184;8.216;2023-10-13T16:06:16;8.73;;;6.13;;
1206;SDS011;593;53.184;8.216;2023-10-13T16:08:41;12.37;;;6.43;;